createdAt,value
2023-04-15T00:00:01.350Z,549.3846
2023-04-15T00:01:03.039Z,548.7692
2023-04-15T00:02:04.708Z,550.2308
2023-04-15T00:03:06.476Z,551.7692
2023-04-15T00:04:08.056Z,555.8461
2023-04-15T00:05:09.624Z,556.1539
2023-04-15T00:06:11.324Z,554.9231
2023-04-15T00:07:12.966Z,553.0000
2023-04-15T00:08:14.572Z,551.0000
2023-04-15T00:09:16.254Z,552.0769
2023-04-15T00:10:17.894Z,550.6154
2023-04-15T00:11:19.585Z,555.8461
2023-04-15T00:12:21.189Z,564.3077
2023-04-15T00:13:22.825Z,564.8461
2023-04-15T00:14:24.526Z,562.1539
2023-04-15T00:15:26.099Z,559.4615
2023-04-15T00:16:27.840Z,561.1539
2023-04-15T00:17:29.503Z,559.3077
2023-04-15T00:18:31.083Z,561.5385
2023-04-15T00:19:32.809Z,564.2308
2023-04-15T00:20:34.402Z,561.6154
2023-04-15T00:21:36.083Z,557.6923
2023-04-15T00:22:37.746Z,561.6923
2023-04-15T00:23:39.387Z,562.8461
2023-04-15T00:24:41.004Z,562.6923
2023-04-15T00:25:42.662Z,560.6154
2023-04-15T00:26:44.401Z,559.3846
2023-04-15T00:27:45.962Z,559.0000
2023-04-15T00:28:47.651Z,561.3077
2023-04-15T00:29:49.363Z,562.2308
2023-04-15T00:30:51.058Z,560.9231
2023-04-15T00:31:52.704Z,560.0769
2023-04-15T00:32:54.391Z,559.2308
2023-04-15T00:33:55.965Z,557.6154
2023-04-15T00:34:57.712Z,558.3846
2023-04-15T00:35:59.329Z,558.0000
2023-04-15T00:37:00.980Z,558.1539
2023-04-15T00:38:02.663Z,557.5385
2023-04-15T00:39:04.240Z,558.3846
2023-04-15T00:40:05.969Z,557.8461
2023-04-15T00:41:07.590Z,556.1539
2023-04-15T00:42:09.288Z,553.3846
2023-04-15T00:43:10.907Z,553.3077
2023-04-15T00:44:12.553Z,552.3077
2023-04-15T00:45:14.220Z,556.1539
2023-04-15T00:46:15.907Z,558.3077
2023-04-15T00:47:17.565Z,561.4615
2023-04-15T00:48:19.153Z,563.0769
2023-04-15T00:49:20.794Z,562.2308
2023-04-15T00:50:22.417Z,557.8461
2023-04-15T00:51:24.109Z,556.0000
2023-04-15T00:52:25.778Z,555.9231
2023-04-15T00:53:27.449Z,558.2308
2023-04-15T00:54:29.081Z,554.2308
2023-04-15T00:55:30.688Z,553.8461
2023-04-15T00:56:32.350Z,557.9231
2023-04-15T00:57:34.080Z,558.0000
2023-04-15T00:58:35.591Z,556.3077
2023-04-15T00:59:37.213Z,558.3846
2023-04-15T01:00:38.877Z,556.7692
2023-04-15T01:01:40.571Z,557.6154
2023-04-15T01:02:42.322Z,557.6923
2023-04-15T01:03:44.027Z,558.5385
2023-04-15T01:04:45.471Z,558.1539
2023-04-15T01:05:47.132Z,556.6154
2023-04-15T01:06:48.831Z,556.3077
2023-04-15T01:07:50.488Z,557.0769
2023-04-15T01:08:52.108Z,556.5385
2023-04-15T01:09:53.778Z,557.3077
2023-04-15T01:10:55.426Z,557.0000
2023-04-15T01:11:57.088Z,559.0000
2023-04-15T01:12:58.780Z,558.6154
2023-04-15T01:14:00.427Z,558.0769
2023-04-15T01:15:02.048Z,557.9231
2023-04-15T01:16:03.772Z,557.4615
2023-04-15T01:17:05.389Z,557.0769
2023-04-15T01:18:07.059Z,558.1539
2023-04-15T01:19:08.662Z,553.6923
2023-04-15T01:20:10.330Z,555.3077
2023-04-15T01:21:12.030Z,552.1539
2023-04-15T01:22:13.626Z,552.3846
2023-04-15T01:23:15.291Z,551.5385
2023-04-15T01:24:16.969Z,552.3077
2023-04-15T01:25:18.669Z,553.6923
2023-04-15T01:26:20.273Z,551.5385
2023-04-15T01:27:21.926Z,554.3846
2023-04-15T01:28:23.593Z,555.0769
2023-04-15T01:29:25.228Z,555.6923
2023-04-15T01:30:26.870Z,556.4615
2023-04-15T01:31:28.602Z,558.0769
2023-04-15T01:32:30.206Z,558.7692
2023-04-15T01:33:31.985Z,555.4615
2023-04-15T01:34:35.632Z,553.4615
2023-04-15T01:35:35.262Z,549.9231
2023-04-15T01:36:36.888Z,549.3846
2023-04-15T01:37:38.470Z,547.1539
2023-04-15T01:38:40.129Z,549.3077
2023-04-15T01:39:41.744Z,548.9231
2023-04-15T01:40:43.421Z,551.1539
2023-04-15T01:41:45.063Z,552.3077
2023-04-15T01:42:46.715Z,551.2308
2023-04-15T01:43:48.406Z,550.4615
2023-04-15T01:44:50.027Z,553.4615
2023-04-15T01:45:51.710Z,554.3846
2023-04-15T01:46:53.423Z,553.5385
2023-04-15T01:47:55.014Z,554.6154
2023-04-15T01:48:56.733Z,551.0000
2023-04-15T01:49:58.311Z,547.6154
2023-04-15T01:50:59.928Z,543.5385
2023-04-15T01:52:01.695Z,546.4615
2023-04-15T01:53:03.236Z,546.8461
2023-04-15T01:54:04.985Z,546.0000
2023-04-15T01:55:06.590Z,546.5385
2023-04-15T01:56:08.190Z,546.5385
2023-04-15T01:57:09.883Z,548.7692
2023-04-15T01:58:11.491Z,549.5385
2023-04-15T01:59:13.198Z,551.0000
2023-04-15T02:00:14.810Z,549.4615
2023-04-15T02:01:16.499Z,547.0769
2023-04-15T02:02:18.136Z,546.2308
2023-04-15T02:03:19.904Z,547.4615
2023-04-15T02:04:21.453Z,548.4615
2023-04-15T02:05:23.061Z,550.3077
2023-04-15T02:06:24.712Z,548.5385
2023-04-15T02:07:26.371Z,549.0769
2023-04-15T02:08:28.032Z,545.9231
2023-04-15T02:09:29.695Z,543.3846
2023-04-15T02:10:31.298Z,545.3846
2023-04-15T02:11:32.976Z,545.6923
2023-04-15T02:12:34.616Z,546.0769
2023-04-15T02:13:36.320Z,545.9231
2023-04-15T02:14:37.982Z,547.7692
2023-04-15T02:15:39.581Z,547.3846
2023-04-15T02:16:41.321Z,544.9231
2023-04-15T02:17:42.946Z,546.1539
2023-04-15T02:18:44.581Z,545.2308
2023-04-15T02:19:46.221Z,545.1539
2023-04-15T02:20:47.847Z,548.3846
2023-04-15T02:21:49.504Z,551.0769
2023-04-15T02:22:51.156Z,550.5385
2023-04-15T02:23:54.011Z,550.7692
2023-04-15T02:24:54.530Z,550.3846
2023-04-15T02:25:56.120Z,550.6154
2023-04-15T02:26:57.774Z,547.6923
2023-04-15T02:28:00.400Z,547.0769
2023-04-15T02:29:01.274Z,548.4615
2023-04-15T02:30:02.859Z,549.3846
2023-04-15T02:31:04.469Z,549.9231
2023-04-15T02:32:06.275Z,550.6154
2023-04-15T02:33:07.782Z,554.9231
2023-04-15T02:34:09.477Z,555.6154
2023-04-15T02:35:11.139Z,557.0769
2023-04-15T02:36:12.780Z,559.6154
2023-04-15T02:37:14.429Z,559.2308
2023-04-15T02:38:16.083Z,557.0769
2023-04-15T02:39:17.717Z,554.8461
2023-04-15T02:40:19.297Z,554.8461
2023-04-15T02:41:20.934Z,554.9231
2023-04-15T02:42:22.621Z,554.3846
2023-04-15T02:43:24.261Z,555.7692
2023-04-15T02:44:25.935Z,554.5385
2023-04-15T02:45:27.628Z,549.3077
2023-04-15T02:46:29.337Z,545.0769
2023-04-15T02:47:30.943Z,539.3846
2023-04-15T02:48:32.557Z,537.3077
2023-04-15T02:49:34.180Z,536.3846
2023-04-15T02:50:35.878Z,536.0769
2023-04-15T02:51:37.454Z,535.6154
2023-04-15T02:52:39.116Z,533.3846
2023-04-15T02:53:40.790Z,527.9231
2023-04-15T02:54:42.426Z,525.0000
2023-04-15T02:55:44.133Z,527.6923
2023-04-15T02:56:45.715Z,529.3846
2023-04-15T02:57:47.378Z,527.1539
2023-04-15T02:58:49.076Z,526.9231
2023-04-15T02:59:50.688Z,528.6923
2023-04-15T03:00:52.389Z,528.1539
2023-04-15T03:01:54.156Z,527.8461
2023-04-15T03:02:55.769Z,527.6923
2023-04-15T03:03:57.443Z,526.7692
2023-04-15T03:04:58.935Z,526.8461
2023-04-15T03:06:00.631Z,528.0000
2023-04-15T03:07:02.246Z,528.2308
2023-04-15T03:08:03.924Z,527.9231
2023-04-15T03:09:05.548Z,528.6923
2023-04-15T03:10:07.208Z,528.9231
2023-04-15T03:11:08.891Z,531.7692
2023-04-15T03:12:10.493Z,528.8461
2023-04-15T03:13:12.098Z,525.8461
2023-04-15T03:14:13.763Z,524.3077
2023-04-15T03:15:15.537Z,525.3846
2023-04-15T03:16:17.263Z,523.8461
2023-04-15T03:17:18.792Z,524.0000
2023-04-15T03:18:20.589Z,524.3846
2023-04-15T03:19:22.073Z,522.8461
2023-04-15T03:20:23.808Z,524.9231
2023-04-15T03:21:25.483Z,526.9231
2023-04-15T03:22:27.052Z,529.2308
2023-04-15T03:23:28.737Z,530.0000
2023-04-15T03:24:30.369Z,529.6154
2023-04-15T03:25:32.111Z,526.5385
2023-04-15T03:26:33.739Z,524.6154
2023-04-15T03:27:35.372Z,522.3077
2023-04-15T03:28:36.971Z,526.6154
2023-04-15T03:29:38.622Z,524.4615
2023-04-15T03:30:40.353Z,524.2308
2023-04-15T03:31:42.032Z,522.1539
2023-04-15T03:32:43.563Z,519.1539
2023-04-15T03:33:45.215Z,518.5385
2023-04-15T03:34:46.891Z,522.0769
2023-04-15T03:35:48.491Z,522.5385
2023-04-15T03:36:50.234Z,523.5385
2023-04-15T03:37:51.771Z,523.4615
2023-04-15T03:38:53.414Z,525.4615
2023-04-15T03:39:55.107Z,525.3077
2023-04-15T03:40:56.711Z,525.3077
2023-04-15T03:41:58.428Z,527.6923
2023-04-15T03:43:00.130Z,528.6923
2023-04-15T03:44:01.574Z,529.3846
2023-04-15T03:45:03.275Z,528.0769
2023-04-15T03:46:04.951Z,528.3846
2023-04-15T03:47:06.633Z,526.5385
2023-04-15T03:48:17.060Z,525.3077
2023-04-15T03:49:09.862Z,521.3846
2023-04-15T03:50:11.494Z,521.6923
2023-04-15T03:51:13.114Z,525.0000
2023-04-15T03:52:14.764Z,524.6923
2023-04-15T03:53:16.412Z,522.2308
2023-04-15T03:54:18.078Z,523.0000
2023-04-15T03:55:19.720Z,525.0000
2023-04-15T03:56:21.344Z,524.1539
2023-04-15T03:57:23.007Z,526.0000
2023-04-15T03:58:24.648Z,525.7692
2023-04-15T03:59:26.271Z,527.0000
2023-04-15T04:00:27.955Z,526.3846
2023-04-15T04:01:29.570Z,524.0769
2023-04-15T04:02:31.335Z,525.3846
2023-04-15T04:03:32.951Z,524.0000
2023-04-15T04:04:34.558Z,525.9231
2023-04-15T04:05:36.152Z,526.2308
2023-04-15T04:06:37.803Z,523.0000
2023-04-15T04:07:39.473Z,524.2308
2023-04-15T04:08:41.111Z,527.2308
2023-04-15T04:09:42.734Z,527.3846
2023-04-15T04:10:44.394Z,527.8461
2023-04-15T04:11:46.031Z,524.5385
2023-04-15T04:12:47.782Z,520.1539
2023-04-15T04:13:49.347Z,523.1539
2023-04-15T04:14:50.947Z,527.4615
2023-04-15T04:15:52.657Z,529.5385
2023-04-15T04:16:54.319Z,527.2308
2023-04-15T04:17:55.993Z,532.6923
2023-04-15T04:18:57.583Z,535.3077
2023-04-15T04:19:59.324Z,531.5385
2023-04-15T04:21:00.947Z,529.3846
2023-04-15T04:22:02.705Z,528.9231
2023-04-15T04:23:04.313Z,529.8461
2023-04-15T04:24:05.830Z,530.7692
2023-04-15T04:25:07.440Z,530.8461
2023-04-15T04:26:09.142Z,527.9231
2023-04-15T04:27:10.797Z,527.6154
2023-04-15T04:28:12.416Z,527.0769
2023-04-15T04:29:14.051Z,529.1539
2023-04-15T04:30:15.715Z,532.3077
2023-04-15T04:31:17.420Z,531.2308
2023-04-15T04:32:19.069Z,528.7692
2023-04-15T04:33:20.656Z,528.3846
2023-04-15T04:34:22.312Z,528.6923
2023-04-15T04:35:23.956Z,529.6154
2023-04-15T04:36:25.579Z,524.7692
2023-04-15T04:37:27.313Z,524.0769
2023-04-15T04:38:28.880Z,523.5385
2023-04-15T04:39:30.570Z,524.0000
2023-04-15T04:40:32.166Z,523.6923
2023-04-15T04:41:33.838Z,523.0769
2023-04-15T04:42:36.803Z,521.7692
2023-04-15T04:43:37.128Z,523.6154
2023-04-15T04:44:38.779Z,522.9231
2023-04-15T04:45:40.464Z,521.2308
2023-04-15T04:46:42.085Z,518.0769
2023-04-15T04:47:43.836Z,519.2308
2023-04-15T04:49:00.000Z,520.4615
2023-04-15T04:49:47.062Z,521.3077
2023-04-15T04:50:48.665Z,520.6923
2023-04-15T04:51:50.368Z,520.5385
2023-04-15T04:52:52.024Z,520.0769
2023-04-15T04:53:53.655Z,515.0000
2023-04-15T04:54:55.278Z,513.7692
2023-04-15T04:55:56.928Z,514.6154
2023-04-15T04:56:58.588Z,515.5385
2023-04-15T04:58:00.268Z,517.8461
2023-04-15T04:59:02.130Z,517.6154
2023-04-15T05:00:03.608Z,519.6154
2023-04-15T05:01:05.316Z,520.1539
2023-04-15T05:02:06.930Z,518.1539
2023-04-15T05:03:08.763Z,518.5385
2023-04-15T05:04:10.396Z,522.5385
2023-04-15T05:05:11.882Z,523.0769
2023-04-15T05:06:13.525Z,521.8461
2023-04-15T05:07:15.160Z,522.1539
2023-04-15T05:08:16.856Z,517.1539
2023-04-15T05:09:18.548Z,517.4615
2023-04-15T05:10:20.145Z,517.1539
2023-04-15T05:11:21.874Z,516.0000
2023-04-15T05:12:23.435Z,516.0769
2023-04-15T05:13:25.145Z,517.7692
2023-04-15T05:14:26.752Z,518.4615
2023-04-15T05:15:28.539Z,518.5385
2023-04-15T05:16:29.912Z,519.1539
2023-04-15T05:17:31.779Z,522.3077
2023-04-15T05:18:33.419Z,522.0769
2023-04-15T05:19:35.003Z,521.4615
2023-04-15T05:20:36.623Z,522.9231
2023-04-15T05:21:39.512Z,521.8461
2023-04-15T05:22:39.954Z,519.4615
2023-04-15T05:23:41.624Z,517.8461
2023-04-15T05:24:43.294Z,517.6154
2023-04-15T05:25:44.907Z,514.0769
2023-04-15T05:26:46.589Z,515.3846
2023-04-15T05:27:48.132Z,516.5385
2023-04-15T05:28:49.729Z,517.3077
2023-04-15T05:29:51.407Z,517.0000
2023-04-15T05:30:53.069Z,515.6154
2023-04-15T05:31:54.660Z,515.0000
2023-04-15T05:32:56.329Z,515.9231
2023-04-15T05:33:58.003Z,516.3846
2023-04-15T05:34:59.628Z,517.0769
2023-04-15T05:36:01.219Z,517.4615
2023-04-15T05:37:02.918Z,518.2308
2023-04-15T05:38:04.564Z,513.6154
2023-04-15T05:39:06.332Z,514.2308
2023-04-15T05:40:07.953Z,515.1539
2023-04-15T05:41:09.638Z,515.4615
2023-04-15T05:42:11.249Z,513.0000
2023-04-15T05:43:12.864Z,510.4615
2023-04-15T05:44:14.605Z,509.1538
2023-04-15T05:45:16.192Z,507.5385
2023-04-15T05:46:18.002Z,507.6154
2023-04-15T05:47:19.576Z,508.0769
2023-04-15T05:48:21.167Z,509.6923
2023-04-15T05:49:22.840Z,511.1538
2023-04-15T05:50:24.431Z,510.0769
2023-04-15T05:51:26.085Z,508.4615
2023-04-15T05:52:27.704Z,506.4615
2023-04-15T05:53:29.358Z,506.6923
2023-04-15T05:54:31.056Z,509.6923
2023-04-15T05:55:32.673Z,503.3846
2023-04-15T05:56:34.311Z,502.2308
2023-04-15T05:57:36.029Z,503.0769
2023-04-15T05:58:37.712Z,500.3077
2023-04-15T05:59:39.352Z,497.4615
2023-04-15T06:00:41.009Z,497.8462
2023-04-15T06:01:42.590Z,500.7692
2023-04-15T06:02:44.420Z,499.2308
2023-04-15T06:03:46.110Z,498.5385
2023-04-15T06:04:47.643Z,495.1538
2023-04-15T06:05:49.212Z,498.3846
2023-04-15T06:06:50.868Z,496.2308
2023-04-15T06:07:52.443Z,495.7692
2023-04-15T06:08:54.116Z,493.6923
2023-04-15T06:09:55.801Z,492.3846
2023-04-15T06:10:57.402Z,490.7692
2023-04-15T06:11:59.060Z,483.8462
2023-04-15T06:13:00.700Z,484.6923
2023-04-15T06:14:02.387Z,483.3846
2023-04-15T06:15:04.034Z,477.5385
2023-04-15T06:16:05.701Z,477.6154
2023-04-15T06:17:07.315Z,480.3846
2023-04-15T06:18:08.936Z,481.9231
2023-04-15T06:19:10.642Z,481.0000
2023-04-15T06:20:12.273Z,485.9231
2023-04-15T06:21:13.914Z,487.8462
2023-04-15T06:22:15.559Z,481.7692
2023-04-15T06:23:17.247Z,479.0000
2023-04-15T06:24:18.856Z,481.5385
2023-04-15T06:25:20.533Z,482.0000
2023-04-15T06:26:22.179Z,479.5385
2023-04-15T06:27:23.805Z,475.6154
2023-04-15T06:28:25.460Z,473.0000
2023-04-15T06:29:27.152Z,470.9231
2023-04-15T06:30:28.772Z,467.6923
2023-04-15T06:31:30.508Z,465.6923
2023-04-15T06:32:32.120Z,460.2308
2023-04-15T06:33:33.704Z,458.2308
2023-04-15T06:34:35.406Z,455.6154
2023-04-15T06:35:37.025Z,457.0000
2023-04-15T06:36:38.660Z,456.6154
2023-04-15T06:37:40.357Z,459.0000
2023-04-15T06:38:41.969Z,458.6154
2023-04-15T06:39:43.683Z,456.8462
2023-04-15T06:40:45.301Z,453.3846
2023-04-15T06:41:46.929Z,452.3846
2023-04-15T06:42:48.613Z,452.1538
2023-04-15T06:43:50.254Z,451.1538
2023-04-15T06:44:51.942Z,451.5385
2023-04-15T06:45:53.538Z,452.9231
2023-04-15T06:46:55.193Z,451.6923
2023-04-15T06:47:56.896Z,450.4615
2023-04-15T06:48:59.596Z,451.3077
2023-04-15T06:50:00.295Z,449.3077
2023-04-15T06:51:01.892Z,446.3846
2023-04-15T06:52:03.534Z,445.3077
2023-04-15T06:53:05.198Z,445.3077
2023-04-15T06:54:06.836Z,442.3846
2023-04-15T06:55:08.550Z,442.5385
2023-04-15T06:56:10.197Z,445.3077
2023-04-15T06:57:11.795Z,447.4615
2023-04-15T06:58:13.472Z,448.8462
2023-04-15T06:59:15.129Z,448.3077
2023-04-15T07:00:16.801Z,448.3846
2023-04-15T07:01:18.494Z,446.1538
2023-04-15T07:02:20.175Z,447.1538
2023-04-15T07:03:21.700Z,447.3846
2023-04-15T07:04:23.397Z,447.0769
2023-04-15T07:05:25.091Z,447.6154
2023-04-15T07:06:26.700Z,447.3846
2023-04-15T07:07:28.369Z,445.2308
2023-04-15T07:08:29.958Z,443.0769
2023-04-15T07:09:31.581Z,446.7692
2023-04-15T07:10:33.390Z,443.8462
2023-04-15T07:11:34.920Z,444.3846
2023-04-15T07:12:36.563Z,446.0769
2023-04-15T07:13:38.181Z,445.0000
2023-04-15T07:14:39.812Z,444.5385
2023-04-15T07:15:41.505Z,447.7692
2023-04-15T07:16:43.187Z,448.0769
2023-04-15T07:17:44.787Z,443.9231
2023-04-15T07:18:46.371Z,442.6154
2023-04-15T07:19:48.035Z,442.7692
2023-04-15T07:20:49.746Z,445.0769
2023-04-15T07:21:51.350Z,448.2308
2023-04-15T07:22:52.954Z,447.5385
2023-04-15T07:23:54.774Z,445.2308
2023-04-15T07:24:56.268Z,443.3846
2023-04-15T07:25:57.950Z,444.3846
2023-04-15T07:27:01.014Z,443.4615
2023-04-15T07:28:01.309Z,442.0000
2023-04-15T07:29:03.183Z,438.0000
2023-04-15T07:30:04.551Z,436.6923
2023-04-15T07:31:06.282Z,441.3077
2023-04-15T07:32:07.975Z,441.1538
2023-04-15T07:33:09.501Z,439.8462
2023-04-15T07:34:11.172Z,439.1538
2023-04-15T07:35:12.823Z,438.4615
2023-04-15T07:36:14.506Z,438.0769
2023-04-15T07:37:16.102Z,440.5385
2023-04-15T07:38:17.742Z,439.2308
2023-04-15T07:39:19.444Z,438.3846
2023-04-15T07:40:21.052Z,439.0769
2023-04-15T07:41:22.764Z,438.6154
2023-04-15T07:42:24.338Z,435.3846
2023-04-15T07:43:26.058Z,432.8462
2023-04-15T07:44:27.716Z,432.1538
2023-04-15T07:45:29.279Z,430.8462
2023-04-15T07:46:30.997Z,430.6154
2023-04-15T07:47:32.660Z,432.6154
2023-04-15T07:48:35.613Z,431.9231
2023-04-15T07:49:35.856Z,431.5385
2023-04-15T07:50:37.429Z,430.6923
2023-04-15T07:51:39.047Z,433.4615
2023-04-15T07:52:40.693Z,433.1538
2023-04-15T07:53:42.327Z,431.9231
2023-04-15T07:54:44.005Z,429.3846
2023-04-15T07:55:45.657Z,430.0000
2023-04-15T07:56:47.366Z,430.4615
2023-04-15T07:57:48.943Z,429.3846
2023-04-15T07:58:50.604Z,427.5385
2023-04-15T07:59:52.242Z,427.3846
2023-04-15T08:00:53.872Z,426.6154
2023-04-15T08:01:55.593Z,431.1538
2023-04-15T08:02:57.321Z,432.6154
2023-04-15T08:03:58.889Z,431.5385
2023-04-15T08:05:00.493Z,432.2308
2023-04-15T08:06:02.095Z,434.0000
2023-04-15T08:07:03.752Z,430.7692
2023-04-15T08:08:05.386Z,430.3846
2023-04-15T08:09:07.252Z,431.1538
2023-04-15T08:10:08.678Z,433.0000
2023-04-15T08:11:10.539Z,433.6154
2023-04-15T08:12:12.002Z,435.7692
2023-04-15T08:13:13.605Z,434.0000
2023-04-15T08:14:15.237Z,432.8462
2023-04-15T08:15:16.896Z,431.9231
2023-04-15T08:16:18.631Z,435.1538
2023-04-15T08:17:20.235Z,437.3077
2023-04-15T08:18:21.934Z,439.0000
2023-04-15T08:19:23.477Z,439.5385
2023-04-15T08:20:25.137Z,441.0769
2023-04-15T08:21:26.755Z,440.3077
2023-04-15T08:22:28.482Z,435.9231
2023-04-15T08:23:30.061Z,435.4615
2023-04-15T08:24:31.709Z,436.0769
2023-04-15T08:25:33.430Z,434.6923
2023-04-15T08:26:35.050Z,430.9231
2023-04-15T08:27:36.756Z,428.8462
2023-04-15T08:28:38.345Z,426.7692
2023-04-15T08:29:39.993Z,428.3077
2023-04-15T08:30:41.646Z,430.0000
2023-04-15T08:31:43.354Z,430.7692
2023-04-15T08:32:45.049Z,430.7692
2023-04-15T08:33:46.594Z,431.3846
2023-04-15T08:34:48.257Z,427.3846
2023-04-15T08:35:49.862Z,425.0000
2023-04-15T08:36:51.590Z,428.6923
2023-04-15T08:37:53.220Z,427.0769
2023-04-15T08:38:54.854Z,431.7692
2023-04-15T08:39:56.480Z,423.6923
2023-04-15T08:40:58.093Z,424.3077
2023-04-15T08:41:59.721Z,421.4615
2023-04-15T08:43:01.401Z,422.6154
2023-04-15T08:44:03.067Z,424.2308
2023-04-15T08:45:04.685Z,423.1538
2023-04-15T08:46:06.230Z,424.0769
2023-04-15T08:47:07.983Z,423.0769
2023-04-15T08:48:09.574Z,419.8462
2023-04-15T08:49:11.162Z,424.0000
2023-04-15T08:50:12.817Z,423.9231
2023-04-15T08:51:14.483Z,424.5385
2023-04-15T08:52:16.129Z,425.0000
2023-04-15T08:53:17.741Z,425.2308
2023-04-15T08:54:19.413Z,427.2308
2023-04-15T08:55:21.025Z,425.3077
2023-04-15T08:56:22.698Z,426.1538
2023-04-15T08:57:24.321Z,426.1538
2023-04-15T08:58:25.987Z,425.4615
2023-04-15T08:59:27.587Z,424.2308
2023-04-15T09:00:29.244Z,424.3846
2023-04-15T09:01:30.935Z,422.3846
2023-04-15T09:02:32.620Z,422.4615
2023-04-15T09:03:34.356Z,423.1538
2023-04-15T09:04:35.796Z,425.2308
2023-04-15T09:05:37.485Z,425.1538
2023-04-15T09:06:39.074Z,425.9231
2023-04-15T09:07:40.718Z,427.8462
2023-04-15T09:08:42.399Z,432.1538
2023-04-15T09:09:44.005Z,434.6154
2023-04-15T09:10:45.657Z,435.4615
2023-04-15T09:11:47.298Z,433.5385
2023-04-15T09:12:48.940Z,432.9231
2023-04-15T09:13:50.641Z,430.5385
2023-04-15T09:14:52.256Z,432.6923
2023-04-15T09:15:53.885Z,431.7692
2023-04-15T09:16:55.560Z,434.3077
2023-04-15T09:17:57.219Z,434.4615
2023-04-15T09:18:58.821Z,433.3077
2023-04-15T09:20:00.437Z,429.6154
2023-04-15T09:21:02.101Z,432.5385
2023-04-15T09:22:03.795Z,433.0000
2023-04-15T09:23:05.456Z,430.5385
2023-04-15T09:24:07.174Z,430.1538
2023-04-15T09:25:08.911Z,427.8462
2023-04-15T09:26:10.424Z,425.9231
2023-04-15T09:27:12.082Z,427.2308
2023-04-15T09:28:13.737Z,426.3846
2023-04-15T09:29:15.341Z,427.6923
2023-04-15T09:30:17.049Z,428.9231
2023-04-15T09:31:18.698Z,430.8462
2023-04-15T09:32:20.274Z,429.9231
2023-04-15T09:33:21.899Z,429.2308
2023-04-15T09:34:23.490Z,426.7692
2023-04-15T09:35:25.095Z,425.6923
2023-04-15T09:36:26.753Z,429.0000
2023-04-15T09:37:32.461Z,427.4615
2023-04-15T09:38:30.082Z,425.9231
2023-04-15T09:39:31.701Z,427.0000
2023-04-15T09:40:33.374Z,427.3077
2023-04-15T09:41:34.972Z,423.9231
2023-04-15T09:42:36.643Z,420.6154
2023-04-15T09:43:38.283Z,419.6154
2023-04-15T09:44:39.893Z,418.3846
2023-04-15T09:45:41.576Z,423.6154
2023-04-15T09:46:43.215Z,423.2308
2023-04-15T09:47:44.843Z,424.3077
2023-04-15T09:48:46.719Z,424.5385
2023-04-15T09:49:48.244Z,426.0769
2023-04-15T09:50:49.735Z,424.3077
2023-04-15T09:52:04.124Z,424.0000
2023-04-15T09:52:53.043Z,422.4615
2023-04-15T09:53:54.685Z,423.3077
2023-04-15T09:54:56.327Z,424.1538
2023-04-15T09:55:57.934Z,423.4615
2023-04-15T09:56:59.588Z,423.0769
2023-04-15T09:58:01.200Z,421.6154
2023-04-15T09:59:02.882Z,420.5385
2023-04-15T10:00:04.496Z,421.6154
2023-04-15T10:01:06.193Z,420.2308
2023-04-15T10:02:07.978Z,420.0769
2023-04-15T10:03:09.553Z,421.6154
2023-04-15T10:04:11.266Z,421.5385
2023-04-15T10:05:12.738Z,420.0769
2023-04-15T10:06:14.365Z,419.0769
2023-04-15T10:07:16.019Z,419.3077
2023-04-15T10:08:17.638Z,416.4615
2023-04-15T10:09:19.405Z,416.6923
2023-04-15T10:10:21.017Z,419.0000
2023-04-15T10:11:22.653Z,416.8462
2023-04-15T10:12:24.343Z,417.0000
2023-04-15T10:13:25.960Z,419.0000
2023-04-15T10:14:27.666Z,419.3077
2023-04-15T10:15:29.362Z,422.4615
2023-04-15T10:16:30.930Z,424.3077
2023-04-15T10:17:32.651Z,420.0000
2023-04-15T10:18:34.195Z,420.8462
2023-04-15T10:19:35.874Z,423.1538
2023-04-15T10:20:37.475Z,422.1538
2023-04-15T10:21:39.151Z,420.9231
2023-04-15T10:22:40.781Z,422.0769
2023-04-15T10:23:42.414Z,419.9231
2023-04-15T10:24:44.133Z,418.2308
2023-04-15T10:25:45.707Z,422.6154
2023-04-15T10:26:47.389Z,421.5385
2023-04-15T10:27:48.967Z,421.7692
2023-04-15T10:28:50.672Z,421.8462
2023-04-15T10:29:52.230Z,421.9231
2023-04-15T10:30:53.901Z,424.0769
2023-04-15T10:31:55.421Z,421.7692
2023-04-15T10:32:57.100Z,421.3846
2023-04-15T10:33:58.753Z,421.6154
2023-04-15T10:35:00.374Z,423.6154
2023-04-15T10:36:02.040Z,427.0000
2023-04-15T10:37:03.765Z,426.0000
2023-04-15T10:38:05.267Z,424.0000
2023-04-15T10:39:06.898Z,421.6154
2023-04-15T10:40:08.597Z,418.9231
2023-04-15T10:41:10.198Z,417.6154
2023-04-15T10:42:11.837Z,418.2308
2023-04-15T10:43:13.478Z,416.0000
2023-04-15T10:44:15.138Z,409.4615
2023-04-15T10:45:16.800Z,408.9231
2023-04-15T10:46:18.449Z,408.0000
2023-04-15T10:47:20.050Z,409.8462
2023-04-15T10:48:21.708Z,411.0000
2023-04-15T10:49:23.359Z,410.8462
2023-04-15T10:50:25.013Z,414.9231
2023-04-15T10:51:26.664Z,414.1538
2023-04-15T10:52:28.291Z,413.4615
2023-04-15T10:53:29.926Z,414.0769
2023-04-15T10:54:31.585Z,414.7692
2023-04-15T10:55:33.269Z,416.4615
2023-04-15T10:56:34.860Z,411.0769
2023-04-15T10:57:36.491Z,412.3846
2023-04-15T10:58:38.135Z,413.6923
2023-04-15T10:59:39.768Z,415.0000
2023-04-15T11:00:41.435Z,413.2308
2023-04-15T11:01:43.072Z,412.4615
2023-04-15T11:02:44.933Z,412.5385
2023-04-15T11:03:46.490Z,411.0000
2023-04-15T11:04:48.133Z,409.5385
2023-04-15T11:05:49.841Z,409.8462
2023-04-15T11:06:51.354Z,409.1538
2023-04-15T11:07:53.020Z,409.4615
2023-04-15T11:08:54.609Z,410.1538
2023-04-15T11:09:56.249Z,409.2308
2023-04-15T11:10:57.932Z,407.3846
2023-04-15T11:11:59.564Z,406.0000
2023-04-15T11:13:01.195Z,406.6154
2023-04-15T11:14:03.039Z,406.0000
2023-04-15T11:15:04.468Z,404.5385
2023-04-15T11:16:06.187Z,404.9231
2023-04-15T11:17:07.768Z,403.6923
2023-04-15T11:18:09.413Z,406.1538
2023-04-15T11:19:10.913Z,405.3846
2023-04-15T11:20:12.650Z,404.8462
2023-04-15T11:21:14.270Z,404.8462
2023-04-15T11:22:15.884Z,403.6154
2023-04-15T11:23:17.523Z,403.6154
2023-04-15T11:24:19.164Z,404.3077
2023-04-15T11:25:20.788Z,405.6154
2023-04-15T11:26:22.446Z,406.0769
2023-04-15T11:27:24.083Z,406.8462
2023-04-15T11:28:25.727Z,403.3077
2023-04-15T11:29:27.420Z,404.0769
2023-04-15T11:30:29.089Z,404.0769
2023-04-15T11:31:30.743Z,402.9231
2023-04-15T11:32:32.399Z,406.8462
2023-04-15T11:33:33.972Z,408.4615
2023-04-15T11:34:36.225Z,410.0769
2023-04-15T11:35:37.286Z,409.7692
2023-04-15T11:36:38.944Z,407.0769
2023-04-15T11:37:40.542Z,407.8462
2023-04-15T11:38:42.186Z,408.3077
2023-04-15T11:39:43.812Z,408.3077
2023-04-15T11:40:47.184Z,408.0769
2023-04-15T11:41:47.146Z,406.4615
2023-04-15T11:42:49.859Z,407.6154
2023-04-15T11:43:50.391Z,406.8462
2023-04-15T11:44:52.046Z,403.4615
2023-04-15T11:45:53.824Z,406.0769
2023-04-15T11:46:55.347Z,405.6923
2023-04-15T11:47:57.009Z,404.6923
2023-04-15T11:48:58.644Z,402.8462
2023-04-15T11:50:00.248Z,402.0769
2023-04-15T11:51:01.933Z,404.6923
2023-04-15T11:52:03.562Z,403.6154
2023-04-15T11:53:08.163Z,404.5385
2023-04-15T11:54:07.116Z,405.2308
2023-04-15T11:55:08.680Z,407.3846
2023-04-15T11:56:10.215Z,408.4615
2023-04-15T11:57:11.887Z,403.3077
2023-04-15T11:58:15.108Z,404.3846
2023-04-15T11:59:15.114Z,403.8462
2023-04-15T12:00:16.763Z,405.5385
2023-04-15T12:01:18.393Z,402.0769
2023-04-15T12:02:20.190Z,401.7692
2023-04-15T12:03:21.845Z,402.3846